createdAt,value
2024-05-09T00:00:15.586Z,10.92
2024-05-09T00:00:50.277Z,10.74
2024-05-09T00:01:22.061Z,11.00
2024-05-09T00:01:53.798Z,10.86
2024-05-09T00:02:25.630Z,11.04
2024-05-09T00:02:57.439Z,10.81
2024-05-09T00:03:29.293Z,10.88
2024-05-09T00:04:01.103Z,10.96
2024-05-09T00:04:32.982Z,10.86
2024-05-09T00:05:05.123Z,10.91
2024-05-09T00:05:37.237Z,10.98
2024-05-09T00:06:09.889Z,10.93
2024-05-09T00:06:41.687Z,10.99
2024-05-09T00:07:13.371Z,10.94
2024-05-09T00:07:45.057Z,11.01
2024-05-09T00:08:16.861Z,10.91
2024-05-09T00:08:48.515Z,10.90
2024-05-09T00:09:20.210Z,10.87
2024-05-09T00:09:51.842Z,11.09
2024-05-09T00:10:32.632Z,11.11
2024-05-09T00:11:07.570Z,10.83
2024-05-09T00:11:39.918Z,10.96
2024-05-09T00:12:11.834Z,11.17
2024-05-09T00:12:44.752Z,10.91
2024-05-09T00:13:16.606Z,11.01
2024-05-09T00:13:48.364Z,10.96
2024-05-09T00:14:20.093Z,11.16
2024-05-09T00:14:52.389Z,11.04
2024-05-09T00:15:24.060Z,11.11
2024-05-09T00:15:55.686Z,11.02
2024-05-09T00:16:27.396Z,10.93
2024-05-09T00:16:59.102Z,11.03
2024-05-09T00:17:30.934Z,11.11
2024-05-09T00:18:03.288Z,11.14
2024-05-09T00:18:35.552Z,10.92
2024-05-09T00:19:07.482Z,10.99
2024-05-09T00:19:39.445Z,10.86
2024-05-09T00:20:17.703Z,11.07
2024-05-09T00:20:55.790Z,11.11
2024-05-09T00:21:28.795Z,11.09
2024-05-09T00:22:01.807Z,10.93
2024-05-09T00:22:33.518Z,11.08
2024-05-09T00:23:06.866Z,10.92
2024-05-09T00:23:39.217Z,10.76
2024-05-09T00:24:11.095Z,11.01
2024-05-09T00:24:42.892Z,10.86
2024-05-09T00:25:14.647Z,10.98
2024-05-09T00:25:46.305Z,10.95
2024-05-09T00:26:18.484Z,10.96
2024-05-09T00:26:50.193Z,10.75
2024-05-09T00:27:22.687Z,10.67
2024-05-09T00:27:54.275Z,10.99
2024-05-09T00:28:26.068Z,10.97
2024-05-09T00:28:57.751Z,10.99
2024-05-09T00:29:29.578Z,10.76
2024-05-09T00:30:01.347Z,10.77
2024-05-09T00:30:35.953Z,10.67
2024-05-09T00:31:10.220Z,10.80
2024-05-09T00:31:41.876Z,10.91
2024-05-09T00:32:13.751Z,10.70
2024-05-09T00:32:48.246Z,10.83
2024-05-09T00:33:20.258Z,10.95
2024-05-09T00:33:53.274Z,10.95
2024-05-09T00:34:24.997Z,10.80
2024-05-09T00:34:56.830Z,10.96
2024-05-09T00:35:28.812Z,10.82
2024-05-09T00:36:01.254Z,10.92
2024-05-09T00:36:32.980Z,10.76
2024-05-09T00:37:04.687Z,10.77
2024-05-09T00:37:36.467Z,10.88
2024-05-09T00:38:08.480Z,10.81
2024-05-09T00:38:40.205Z,10.80
2024-05-09T00:39:11.890Z,10.59
2024-05-09T00:39:43.585Z,10.67
2024-05-09T00:40:22.801Z,10.91
2024-05-09T00:41:02.639Z,10.87
2024-05-09T00:41:34.421Z,10.83
2024-05-09T00:42:06.115Z,10.60
2024-05-09T00:42:40.931Z,10.66
2024-05-09T00:43:14.368Z,10.77
2024-05-09T00:43:46.912Z,10.91
2024-05-09T00:44:18.716Z,10.66
2024-05-09T00:44:50.407Z,10.91
2024-05-09T00:45:22.104Z,10.68
2024-05-09T00:45:57.320Z,10.69
2024-05-09T00:46:29.449Z,10.80
2024-05-09T00:47:01.103Z,10.84
2024-05-09T00:47:36.690Z,10.86
2024-05-09T00:48:11.073Z,10.71
2024-05-09T00:48:44.362Z,10.63
2024-05-09T00:49:16.335Z,10.91
2024-05-09T00:49:48.751Z,10.79
2024-05-09T00:50:29.407Z,10.92
2024-05-09T00:51:06.742Z,10.93
2024-05-09T00:51:42.053Z,10.88
2024-05-09T00:52:13.755Z,10.93
2024-05-09T00:52:46.458Z,10.74
2024-05-09T00:53:18.995Z,10.84
2024-05-09T00:53:50.807Z,10.97
2024-05-09T00:54:23.658Z,10.76
2024-05-09T00:54:56.655Z,10.82
2024-05-09T00:55:28.611Z,11.01
2024-05-09T00:56:01.251Z,10.69
2024-05-09T00:56:35.140Z,10.93
2024-05-09T00:57:07.070Z,10.92
2024-05-09T00:57:39.812Z,11.10
2024-05-09T00:58:13.720Z,11.10
2024-05-09T00:58:45.771Z,11.04
2024-05-09T00:59:18.294Z,10.89
2024-05-09T00:59:50.447Z,11.07
2024-05-09T01:00:30.549Z,10.98
2024-05-09T01:01:07.900Z,11.03
2024-05-09T01:01:41.185Z,11.05
2024-05-09T01:02:13.221Z,11.01
2024-05-09T01:02:45.260Z,10.91
2024-05-09T01:03:18.006Z,10.84
2024-05-09T01:03:51.426Z,11.04
2024-05-09T01:04:23.345Z,10.78
2024-05-09T01:04:55.610Z,10.98
2024-05-09T01:05:27.663Z,10.64
2024-05-09T01:05:59.458Z,10.94
2024-05-09T01:06:31.280Z,11.04
2024-05-09T01:07:03.054Z,10.83
2024-05-09T01:07:34.840Z,10.91
2024-05-09T01:08:08.050Z,10.95
2024-05-09T01:08:39.997Z,10.81
2024-05-09T01:09:11.782Z,10.99
2024-05-09T01:09:43.489Z,10.97
2024-05-09T01:10:21.214Z,11.06
2024-05-09T01:10:59.532Z,10.73
2024-05-09T01:11:38.952Z,11.01
2024-05-09T01:12:10.904Z,11.01
2024-05-09T01:12:42.651Z,10.84
2024-05-09T01:13:14.361Z,10.98
2024-05-09T01:13:46.285Z,10.90
2024-05-09T01:14:18.163Z,10.99
2024-05-09T01:14:49.876Z,10.83
2024-05-09T01:15:21.614Z,10.99
2024-05-09T01:15:54.022Z,10.94
2024-05-09T01:16:25.788Z,11.11
2024-05-09T01:16:57.664Z,10.91
2024-05-09T01:17:29.575Z,10.73
2024-05-09T01:18:09.441Z,10.79
2024-05-09T01:18:42.280Z,10.88
2024-05-09T01:19:25.953Z,10.79
2024-05-09T01:19:57.883Z,10.99
2024-05-09T01:20:39.569Z,10.87
2024-05-09T01:21:14.573Z,11.14
2024-05-09T01:21:46.301Z,10.81
2024-05-09T01:22:18.549Z,10.86
2024-05-09T01:22:52.476Z,10.72
2024-05-09T01:23:24.224Z,10.87
2024-05-09T01:23:55.887Z,10.82
2024-05-09T01:24:27.617Z,10.93
2024-05-09T01:24:59.284Z,10.83
2024-05-09T01:25:32.875Z,10.87
2024-05-09T01:26:04.791Z,10.83
2024-05-09T01:26:36.594Z,11.03
2024-05-09T01:27:08.260Z,10.63
2024-05-09T01:27:40.062Z,11.01
2024-05-09T01:28:12.087Z,10.71
2024-05-09T01:28:43.786Z,10.99
2024-05-09T01:29:15.705Z,11.00
2024-05-09T01:29:47.399Z,11.06
2024-05-09T01:30:24.334Z,11.09
2024-05-09T01:30:59.637Z,11.03
2024-05-09T01:31:31.332Z,10.97
2024-05-09T01:32:36.218Z,10.73
2024-05-09T01:33:10.013Z,10.84
2024-05-09T01:35:43.310Z,11.06
2024-05-09T01:36:16.181Z,11.00
2024-05-09T01:36:47.918Z,10.94
2024-05-09T01:37:19.586Z,10.91
2024-05-09T01:37:51.342Z,11.07
2024-05-09T01:38:23.214Z,11.07
2024-05-09T01:38:54.945Z,11.08
2024-05-09T01:39:26.613Z,11.09
2024-05-09T01:39:58.474Z,11.03
2024-05-09T01:42:06.878Z,10.78
2024-05-09T01:42:38.553Z,11.02
2024-05-09T01:43:11.264Z,10.98
2024-05-09T01:43:43.819Z,10.92
2024-05-09T01:44:15.566Z,11.01
2024-05-09T01:44:47.238Z,10.93
2024-05-09T01:45:18.906Z,10.92
2024-05-09T01:45:50.576Z,10.92
2024-05-09T01:46:22.247Z,10.93
2024-05-09T01:46:53.947Z,10.95
2024-05-09T01:47:25.835Z,10.68
2024-05-09T01:47:57.939Z,10.75
2024-05-09T01:48:30.015Z,10.77
2024-05-09T01:49:01.839Z,10.58
2024-05-09T01:49:38.841Z,11.01
2024-05-09T01:50:11.096Z,10.88
2024-05-09T01:50:43.627Z,10.87
2024-05-09T01:51:15.527Z,10.95
2024-05-09T01:51:47.303Z,10.88
2024-05-09T01:52:18.996Z,10.97
2024-05-09T01:52:51.092Z,10.87
2024-05-09T01:53:22.921Z,10.80
2024-05-09T01:53:55.989Z,10.91
2024-05-09T01:54:27.786Z,10.90
2024-05-09T01:55:01.984Z,10.92
2024-05-09T01:55:35.022Z,10.90
2024-05-09T01:56:07.535Z,10.86
2024-05-09T01:56:39.118Z,10.99
2024-05-09T01:57:12.183Z,10.91
2024-05-09T01:57:43.824Z,10.93
2024-05-09T01:58:16.083Z,10.76
2024-05-09T01:58:47.835Z,11.02
2024-05-09T01:59:19.772Z,10.95
2024-05-09T01:59:51.467Z,11.05
2024-05-09T02:00:36.392Z,10.69
2024-05-09T02:01:11.985Z,10.89
2024-05-09T02:01:56.275Z,10.90
2024-05-09T02:02:29.590Z,10.84
2024-05-09T02:03:01.748Z,10.91
2024-05-09T02:03:34.002Z,10.86
2024-05-09T02:04:06.120Z,10.69
2024-05-09T02:04:38.315Z,10.98
2024-05-09T02:05:10.196Z,10.81
2024-05-09T02:05:42.762Z,10.78
2024-05-09T02:06:14.482Z,11.06
2024-05-09T02:06:46.154Z,10.97
2024-05-09T02:07:18.015Z,10.87
2024-05-09T02:07:49.817Z,10.84
2024-05-09T02:08:22.341Z,10.84
2024-05-09T02:08:54.105Z,11.09
2024-05-09T02:09:25.920Z,10.73
2024-05-09T02:09:57.645Z,10.83
2024-05-09T02:10:32.701Z,11.06
2024-05-09T02:11:05.265Z,10.92
2024-05-09T02:11:44.563Z,10.90
2024-05-09T02:12:16.531Z,10.81
2024-05-09T02:12:48.403Z,10.92
2024-05-09T02:13:20.151Z,11.02
2024-05-09T02:13:51.969Z,10.89
2024-05-09T02:14:24.069Z,11.00
2024-05-09T02:14:55.844Z,10.71
2024-05-09T02:15:27.775Z,10.94
2024-05-09T02:15:59.474Z,10.88
2024-05-09T02:16:31.131Z,10.78
2024-05-09T02:17:05.275Z,11.01
2024-05-09T02:17:37.289Z,10.86
2024-05-09T02:18:10.254Z,11.03
2024-05-09T02:18:42.478Z,10.82
2024-05-09T02:19:14.463Z,10.73
2024-05-09T02:19:46.201Z,11.04
2024-05-09T02:20:27.157Z,11.02
2024-05-09T02:21:05.265Z,11.11
2024-05-09T02:21:37.107Z,10.98
2024-05-09T02:22:08.791Z,11.07
2024-05-09T02:22:40.501Z,11.00
2024-05-09T02:23:12.619Z,10.65
2024-05-09T02:23:44.661Z,10.76
2024-05-09T02:24:16.363Z,10.99
2024-05-09T02:24:48.040Z,10.99
2024-05-09T02:25:22.131Z,10.99
2024-05-09T02:25:53.836Z,10.82
2024-05-09T02:26:25.627Z,11.04
2024-05-09T02:26:57.346Z,10.87
2024-05-09T02:27:29.015Z,11.05
2024-05-09T02:28:00.811Z,10.87
2024-05-09T02:28:32.551Z,10.80
2024-05-09T02:29:04.263Z,10.92
2024-05-09T02:29:36.011Z,10.72
2024-05-09T02:30:18.494Z,10.73
2024-05-09T02:30:57.658Z,10.76
2024-05-09T02:31:29.334Z,10.78
2024-05-09T02:32:01.121Z,10.96
2024-05-09T02:32:32.948Z,10.84
2024-05-09T02:33:05.270Z,10.85
2024-05-09T02:33:37.508Z,10.79
2024-05-09T02:34:09.475Z,10.98
2024-05-09T02:34:41.163Z,10.92
2024-05-09T02:35:13.183Z,10.79
2024-05-09T02:35:44.952Z,10.86
2024-05-09T02:36:17.184Z,10.99
2024-05-09T02:36:48.847Z,10.50
2024-05-09T02:37:20.563Z,10.92
2024-05-09T02:37:52.412Z,11.00
2024-05-09T02:38:24.525Z,10.94
2024-05-09T02:38:56.322Z,10.91
2024-05-09T02:39:27.994Z,10.88
2024-05-09T02:39:59.694Z,10.77
2024-05-09T02:40:37.520Z,10.97
2024-05-09T02:41:11.025Z,10.80
2024-05-09T02:41:42.823Z,10.93
2024-05-09T02:42:14.469Z,10.72
2024-05-09T02:42:46.125Z,10.94
2024-05-09T02:43:17.778Z,10.88
2024-05-09T02:43:49.512Z,10.62
2024-05-09T02:44:21.545Z,11.02
2024-05-09T02:44:53.221Z,10.80
2024-05-09T02:45:24.960Z,10.66
2024-05-09T02:45:57.760Z,10.99
2024-05-09T02:46:29.495Z,10.76
2024-05-09T02:47:01.251Z,10.82
2024-05-09T02:47:33.147Z,10.93
2024-05-09T02:48:05.706Z,10.87
2024-05-09T02:48:37.819Z,10.69
2024-05-09T02:49:09.727Z,10.91
2024-05-09T02:49:41.508Z,10.89
2024-05-09T02:50:16.224Z,10.94
2024-05-09T02:50:54.448Z,10.76
2024-05-09T02:51:26.124Z,10.83
2024-05-09T02:51:57.767Z,10.78
2024-05-09T02:52:29.497Z,10.97
2024-05-09T02:53:01.331Z,10.97
2024-05-09T02:53:33.146Z,10.79
2024-05-09T02:54:04.928Z,10.83
2024-05-09T02:54:36.613Z,10.84
2024-05-09T02:55:08.330Z,10.85
2024-05-09T02:55:41.342Z,10.95
2024-05-09T02:56:13.264Z,10.74
2024-05-09T02:56:45.045Z,10.82
2024-05-09T02:57:16.737Z,10.78
2024-05-09T02:57:48.432Z,10.93
2024-05-09T02:58:20.130Z,10.94
2024-05-09T02:58:51.819Z,10.75
2024-05-09T02:59:23.730Z,10.89
2024-05-09T02:59:55.570Z,10.59
2024-05-09T03:00:36.304Z,10.88
2024-05-09T03:01:11.336Z,10.66
2024-05-09T03:01:46.217Z,10.74
2024-05-09T03:02:18.083Z,10.66
2024-05-09T03:02:50.065Z,10.90
2024-05-09T03:03:22.226Z,10.73
2024-05-09T03:03:54.532Z,10.65
2024-05-09T03:04:26.475Z,10.74
2024-05-09T03:04:58.994Z,10.80
2024-05-09T03:05:30.704Z,10.92
2024-05-09T03:06:02.632Z,10.80
2024-05-09T03:06:34.377Z,10.71
2024-05-09T03:07:06.062Z,10.91
2024-05-09T03:07:38.894Z,10.89
2024-05-09T03:08:10.807Z,10.79
2024-05-09T03:08:46.927Z,10.92
2024-05-09T03:09:18.713Z,10.79
2024-05-09T03:09:50.403Z,10.88
2024-05-09T03:10:25.744Z,10.84
2024-05-09T03:11:00.495Z,10.89
2024-05-09T03:11:32.430Z,10.93
2024-05-09T03:12:04.656Z,10.91
2024-05-09T03:12:39.067Z,10.93
2024-05-09T03:13:14.541Z,10.88
2024-05-09T03:13:47.540Z,10.91
2024-05-09T03:14:19.542Z,10.79
2024-05-09T03:14:51.326Z,10.88
2024-05-09T03:15:23.087Z,10.90
2024-05-09T03:15:54.760Z,10.75
2024-05-09T03:16:26.702Z,10.82
2024-05-09T03:16:58.496Z,10.72
2024-05-09T03:17:30.668Z,10.85
2024-05-09T03:18:03.351Z,10.87
2024-05-09T03:18:35.259Z,10.88
2024-05-09T03:19:07.162Z,10.78
2024-05-09T03:19:38.936Z,10.69
2024-05-09T03:20:17.555Z,10.77
2024-05-09T03:20:55.330Z,10.83
2024-05-09T03:21:27.064Z,10.83
2024-05-09T03:21:58.973Z,10.83
2024-05-09T03:22:30.728Z,10.70
2024-05-09T03:23:02.679Z,10.77
2024-05-09T03:23:42.258Z,10.61
2024-05-09T03:24:14.034Z,10.49
2024-05-09T03:24:45.780Z,10.77
2024-05-09T03:25:17.527Z,10.49
2024-05-09T03:25:49.488Z,10.54
2024-05-09T03:26:21.278Z,10.78
2024-05-09T03:26:53.071Z,10.67
2024-05-09T03:27:24.900Z,10.85
2024-05-09T03:27:56.868Z,10.71
2024-05-09T03:28:28.578Z,10.79
2024-05-09T03:29:00.361Z,10.60
2024-05-09T03:29:32.300Z,10.53
2024-05-09T03:30:07.244Z,10.70
2024-05-09T03:30:42.341Z,10.70
2024-05-09T03:31:18.603Z,10.78
2024-05-09T03:31:50.432Z,10.48
2024-05-09T03:32:22.200Z,10.59
2024-05-09T03:32:54.571Z,10.60
2024-05-09T03:33:26.832Z,10.73
2024-05-09T03:33:58.807Z,10.75
2024-05-09T03:34:30.636Z,10.73
2024-05-09T03:35:02.431Z,10.68
2024-05-09T03:35:34.184Z,10.79
2024-05-09T03:36:09.101Z,10.78
2024-05-09T03:36:43.202Z,10.78
2024-05-09T03:37:14.738Z,10.90
2024-05-09T03:37:46.446Z,10.91
2024-05-09T03:38:18.440Z,10.79
2024-05-09T03:38:51.011Z,10.68
2024-05-09T03:39:22.726Z,10.70
2024-05-09T03:39:54.480Z,10.82
2024-05-09T03:40:29.047Z,10.68
2024-05-09T03:41:02.815Z,10.79
2024-05-09T03:41:35.455Z,10.87
2024-05-09T03:42:07.168Z,10.87
2024-05-09T03:42:41.654Z,10.83
2024-05-09T03:43:13.811Z,10.70
2024-05-09T03:43:45.560Z,10.52
2024-05-09T03:44:17.938Z,10.77
2024-05-09T03:44:49.705Z,10.46
2024-05-09T03:45:21.589Z,10.92
2024-05-09T03:45:53.351Z,10.95
2024-05-09T03:46:25.051Z,10.66
2024-05-09T03:46:56.710Z,10.87
2024-05-09T03:47:28.618Z,10.87
2024-05-09T03:48:00.650Z,10.89
2024-05-09T03:48:35.630Z,10.79
2024-05-09T03:49:08.058Z,10.81
2024-05-09T03:49:40.048Z,10.77
2024-05-09T03:50:18.351Z,10.82
2024-05-09T03:50:57.525Z,10.96
2024-05-09T03:51:29.183Z,10.93
2024-05-09T03:52:05.101Z,10.68
2024-05-09T03:52:36.855Z,10.61
2024-05-09T03:53:11.531Z,10.93
2024-05-09T03:53:43.547Z,10.67
2024-05-09T03:54:15.246Z,10.66
2024-05-09T03:54:47.517Z,10.72
2024-05-09T03:55:19.254Z,10.84
2024-05-09T03:55:50.938Z,10.92
2024-05-09T03:56:22.760Z,10.76
2024-05-09T03:56:54.604Z,10.92
2024-05-09T03:57:26.278Z,10.92
2024-05-09T03:57:58.108Z,10.76
2024-05-09T03:58:29.765Z,10.71
2024-05-09T03:59:01.688Z,10.88
2024-05-09T03:59:33.421Z,10.62
2024-05-09T04:00:11.962Z,10.71
2024-05-09T04:00:49.136Z,10.78
2024-05-09T04:01:20.939Z,10.80
2024-05-09T04:01:54.961Z,10.69
2024-05-09T04:02:26.762Z,10.61
2024-05-09T04:02:59.429Z,10.73
2024-05-09T04:03:31.646Z,10.69
2024-05-09T04:04:03.500Z,10.67
2024-05-09T04:04:35.261Z,10.76
2024-05-09T04:05:07.033Z,10.81
2024-05-09T04:05:44.445Z,10.71
2024-05-09T04:06:26.659Z,10.63
2024-05-09T04:06:59.509Z,10.78
2024-05-09T04:07:33.229Z,10.50
2024-05-09T04:08:05.540Z,10.81
2024-05-09T04:08:37.462Z,10.77
2024-05-09T04:09:09.499Z,10.82
2024-05-09T04:09:43.488Z,10.66
2024-05-09T04:10:23.993Z,10.74
2024-05-09T04:11:02.336Z,10.77
2024-05-09T04:11:34.335Z,10.81
2024-05-09T04:12:07.902Z,10.62
2024-05-09T04:12:39.613Z,10.70
2024-05-09T04:13:11.320Z,10.84
2024-05-09T04:13:43.364Z,10.87
2024-05-09T04:14:15.079Z,10.56
2024-05-09T04:14:46.795Z,10.50
2024-05-09T04:15:18.478Z,10.88
2024-05-09T04:15:50.214Z,10.88
2024-05-09T04:16:21.906Z,10.55
2024-05-09T04:16:53.616Z,10.68
2024-05-09T04:17:25.509Z,10.86
2024-05-09T04:17:57.402Z,10.86
2024-05-09T04:18:29.402Z,10.83
2024-05-09T04:19:01.166Z,10.64
2024-05-09T04:19:33.030Z,10.60
2024-05-09T04:20:08.228Z,10.77
2024-05-09T04:20:41.311Z,10.92
2024-05-09T04:21:13.319Z,10.98
2024-05-09T04:21:44.990Z,10.97
2024-05-09T04:22:17.216Z,10.81
2024-05-09T04:22:48.988Z,10.89
2024-05-09T04:23:21.111Z,10.84
2024-05-09T04:23:52.739Z,10.87
2024-05-09T04:24:24.410Z,10.79
2024-05-09T04:24:56.133Z,10.66
2024-05-09T04:25:27.865Z,10.74
2024-05-09T04:25:59.608Z,10.91
2024-05-09T04:26:31.433Z,10.75
2024-05-09T04:27:03.159Z,10.42
2024-05-09T04:27:34.917Z,10.78
2024-05-09T04:28:06.883Z,10.75
2024-05-09T04:28:38.561Z,10.84
2024-05-09T04:29:10.369Z,10.91
2024-05-09T04:29:42.094Z,10.57
2024-05-09T04:30:21.634Z,10.79
2024-05-09T04:31:02.091Z,10.78
2024-05-09T04:31:36.777Z,10.87
2024-05-09T04:32:08.777Z,10.76
2024-05-09T04:32:43.179Z,10.80
2024-05-09T04:33:15.592Z,10.65
2024-05-09T04:33:47.652Z,10.56
2024-05-09T04:34:19.637Z,10.84
2024-05-09T04:34:51.487Z,10.64
2024-05-09T04:35:23.338Z,10.66
2024-05-09T04:35:55.066Z,10.71
2024-05-09T04:36:27.594Z,10.74
2024-05-09T04:36:59.134Z,10.86
2024-05-09T04:37:30.777Z,10.48
2024-05-09T04:38:02.768Z,10.81
2024-05-09T04:38:34.798Z,10.91
2024-05-09T04:39:06.645Z,10.74
2024-05-09T04:39:38.385Z,10.80
2024-05-09T04:40:20.507Z,10.94
2024-05-09T04:40:56.118Z,10.39
2024-05-09T04:41:27.904Z,10.89
2024-05-09T04:41:59.690Z,10.59
2024-05-09T04:42:31.361Z,10.88
2024-05-09T04:43:03.908Z,10.63
2024-05-09T04:43:35.834Z,10.76
2024-05-09T04:44:07.587Z,10.79
2024-05-09T04:44:39.265Z,10.77
2024-05-09T04:45:11.085Z,10.88
2024-05-09T04:45:43.012Z,10.66
2024-05-09T04:46:14.872Z,10.80
2024-05-09T04:46:49.782Z,10.76
2024-05-09T04:47:21.775Z,10.77
2024-05-09T04:47:54.630Z,10.81
2024-05-09T04:48:26.939Z,10.77
2024-05-09T04:48:58.804Z,10.91
2024-05-09T04:49:30.586Z,10.66
2024-05-09T04:50:02.614Z,10.73
2024-05-09T04:50:38.169Z,10.92
2024-05-09T04:51:11.243Z,10.78
2024-05-09T04:51:42.940Z,10.47
2024-05-09T04:52:14.590Z,10.82
2024-05-09T04:52:46.364Z,10.91
2024-05-09T04:53:18.278Z,10.78
2024-05-09T04:53:50.069Z,10.78
2024-05-09T04:54:33.468Z,10.82
2024-05-09T04:55:07.860Z,10.93
2024-05-09T04:55:40.554Z,10.63
2024-05-09T04:56:12.531Z,10.67
2024-05-09T04:56:44.328Z,10.84
2024-05-09T04:57:16.146Z,10.93
2024-05-09T04:57:47.825Z,10.62
2024-05-09T04:58:19.790Z,10.79
2024-05-09T04:58:51.724Z,10.49
2024-05-09T04:59:23.711Z,10.90
2024-05-09T04:59:56.078Z,10.94
2024-05-09T05:00:35.514Z,10.90
2024-05-09T05:01:09.353Z,10.91
2024-05-09T05:01:42.119Z,10.56
2024-05-09T05:02:14.038Z,10.69
2024-05-09T05:02:45.890Z,10.90
2024-05-09T05:03:18.029Z,10.83
2024-05-09T05:03:50.052Z,10.82
2024-05-09T05:04:21.871Z,10.81
2024-05-09T05:04:53.766Z,10.53
2024-05-09T05:05:25.556Z,10.76
2024-05-09T05:05:57.413Z,10.96
2024-05-09T05:06:30.231Z,10.99
2024-05-09T05:07:02.994Z,10.94
2024-05-09T05:07:34.981Z,10.89
2024-05-09T05:08:11.956Z,10.63
2024-05-09T05:08:43.751Z,10.93
2024-05-09T05:09:15.513Z,10.93
2024-05-09T05:09:47.190Z,10.91
2024-05-09T05:10:25.327Z,10.63
2024-05-09T05:11:01.181Z,10.93
2024-05-09T05:11:33.207Z,10.62
2024-05-09T05:12:25.241Z,10.34
2024-05-09T05:13:15.743Z,10.78
2024-05-09T05:13:47.531Z,10.68
2024-05-09T05:14:19.347Z,10.63
2024-05-09T05:14:51.264Z,10.56
2024-05-09T05:15:23.019Z,10.90
2024-05-09T05:15:57.406Z,10.86
2024-05-09T05:16:29.862Z,10.89
2024-05-09T05:17:01.696Z,10.81
2024-05-09T05:17:33.643Z,10.95
2024-05-09T05:18:05.831Z,10.97
2024-05-09T05:18:37.718Z,10.98
2024-05-09T05:19:12.023Z,10.96
2024-05-09T05:19:45.207Z,10.85
2024-05-09T05:20:24.498Z,10.93
2024-05-09T05:21:03.027Z,10.78
2024-05-09T05:21:34.853Z,10.64
2024-05-09T05:22:08.082Z,10.79
2024-05-09T05:22:43.106Z,10.73
2024-05-09T05:23:16.783Z,10.99
2024-05-09T05:23:48.648Z,10.98
2024-05-09T05:24:20.457Z,10.86
2024-05-09T05:24:52.130Z,10.69
2024-05-09T05:25:23.776Z,10.90
2024-05-09T05:25:55.887Z,11.01
2024-05-09T05:26:27.769Z,10.84
2024-05-09T05:26:59.505Z,10.95
2024-05-09T05:27:31.254Z,10.80
2024-05-09T05:28:02.989Z,10.86
2024-05-09T05:28:34.683Z,10.86
2024-05-09T05:29:06.406Z,11.02
2024-05-09T05:29:38.382Z,10.89
2024-05-09T05:30:17.546Z,11.01
2024-05-09T05:30:52.953Z,10.80
2024-05-09T05:31:24.653Z,10.86
2024-05-09T05:31:56.487Z,10.93
2024-05-09T05:32:28.393Z,11.04
2024-05-09T05:33:00.487Z,10.90
2024-05-09T05:33:32.418Z,10.76
2024-05-09T05:34:04.359Z,10.83
2024-05-09T05:34:36.205Z,10.88
2024-05-09T05:35:07.952Z,11.00
2024-05-09T05:35:41.195Z,10.78
2024-05-09T05:36:12.907Z,10.96
2024-05-09T05:36:44.584Z,11.00
2024-05-09T05:37:16.234Z,10.78
2024-05-09T05:37:47.972Z,10.83
2024-05-09T05:38:23.726Z,10.86
2024-05-09T05:38:58.182Z,11.04
2024-05-09T05:39:29.976Z,10.87
2024-05-09T05:40:01.798Z,10.72
2024-05-09T05:40:37.456Z,11.07
2024-05-09T05:41:10.366Z,11.08
2024-05-09T05:41:42.172Z,11.09
2024-05-09T05:42:13.821Z,10.96
2024-05-09T05:42:45.484Z,11.08
2024-05-09T05:43:19.209Z,11.10
2024-05-09T05:43:54.023Z,10.73
2024-05-09T05:44:25.858Z,11.07
2024-05-09T05:44:57.562Z,10.86
2024-05-09T05:45:29.242Z,11.15
2024-05-09T05:46:00.947Z,10.84
2024-05-09T05:46:32.595Z,11.17
2024-05-09T05:47:04.571Z,11.11
2024-05-09T05:47:37.734Z,10.79
2024-05-09T05:48:10.028Z,11.09
2024-05-09T05:48:41.866Z,11.09
2024-05-09T05:49:13.779Z,11.00
2024-05-09T05:49:45.655Z,11.23
2024-05-09T05:50:24.726Z,10.89
2024-05-09T05:51:05.690Z,11.11
2024-05-09T05:51:37.427Z,11.18
2024-05-09T05:52:12.324Z,11.08
2024-05-09T05:52:44.177Z,11.14
2024-05-09T05:53:15.995Z,11.09
2024-05-09T05:53:47.752Z,11.30
2024-05-09T05:54:19.450Z,11.25
2024-05-09T05:54:51.993Z,11.21
2024-05-09T05:55:23.555Z,11.35
2024-05-09T05:55:55.285Z,11.15
2024-05-09T05:56:27.606Z,11.31
2024-05-09T05:56:59.641Z,11.04
2024-05-09T05:57:31.352Z,11.41
2024-05-09T05:58:03.211Z,11.41
2024-05-09T05:58:34.885Z,11.32
2024-05-09T05:59:06.677Z,11.27
2024-05-09T05:59:38.486Z,11.38
2024-05-09T06:00:15.155Z,11.38
2024-05-09T06:00:53.030Z,11.36
2024-05-09T06:01:24.912Z,11.38
2024-05-09T06:01:57.751Z,11.35
2024-05-09T06:02:29.450Z,11.20
2024-05-09T06:03:01.260Z,11.33
2024-05-09T06:03:33.184Z,11.33
2024-05-09T06:04:05.097Z,11.39
2024-05-09T06:04:36.874Z,11.19
2024-05-09T06:05:09.610Z,11.26
2024-05-09T06:05:45.863Z,11.19
2024-05-09T06:06:17.671Z,11.51
2024-05-09T06:06:49.597Z,11.44
2024-05-09T06:07:21.385Z,11.51
2024-05-09T06:07:53.138Z,11.48
2024-05-09T06:08:27.051Z,11.36
2024-05-09T06:09:00.502Z,11.38
2024-05-09T06:09:32.145Z,11.47
2024-05-09T06:10:07.254Z,11.58
2024-05-09T06:10:43.142Z,11.49
2024-05-09T06:11:14.906Z,11.61
2024-05-09T06:11:46.715Z,11.60
2024-05-09T06:12:18.644Z,11.37
2024-05-09T06:12:50.359Z,11.59
2024-05-09T06:13:22.100Z,11.27
2024-05-09T06:13:53.807Z,11.60
2024-05-09T06:14:25.650Z,11.56
2024-05-09T06:14:57.279Z,11.61
2024-05-09T06:15:28.929Z,11.49
2024-05-09T06:16:00.820Z,11.63
2024-05-09T06:16:33.597Z,11.58
2024-05-09T06:17:05.287Z,11.52
2024-05-09T06:17:37.145Z,11.18
2024-05-09T06:18:10.743Z,11.66
2024-05-09T06:18:43.696Z,11.54
2024-05-09T06:19:15.547Z,11.41
2024-05-09T06:19:47.561Z,11.68
2024-05-09T06:20:24.047Z,11.69
2024-05-09T06:21:03.735Z,11.69
2024-05-09T06:21:35.412Z,11.51
2024-05-09T06:22:09.427Z,11.57
2024-05-09T06:22:41.072Z,11.70
2024-05-09T06:23:13.741Z,11.53
2024-05-09T06:23:46.707Z,11.60
2024-05-09T06:24:18.497Z,11.65
2024-05-09T06:24:50.168Z,11.75
2024-05-09T06:25:21.864Z,11.61
2024-05-09T06:25:53.566Z,11.54
2024-05-09T06:26:25.314Z,11.74
2024-05-09T06:26:57.141Z,11.80
2024-05-09T06:27:28.835Z,11.42
2024-05-09T06:28:01.721Z,11.61
2024-05-09T06:28:35.762Z,11.58
2024-05-09T06:29:07.511Z,11.79
2024-05-09T06:29:39.689Z,11.83
2024-05-09T06:30:24.826Z,11.67
2024-05-09T06:31:01.824Z,11.68
2024-05-09T06:31:33.693Z,11.23
2024-05-09T06:32:05.964Z,11.66
2024-05-09T06:32:37.939Z,11.55
2024-05-09T06:33:12.895Z,11.82
2024-05-09T06:33:46.636Z,11.56
2024-05-09T06:34:18.967Z,11.89
2024-05-09T06:34:50.784Z,11.79
2024-05-09T06:35:22.561Z,11.78
2024-05-09T06:35:59.194Z,11.87
2024-05-09T06:36:30.873Z,11.84
2024-05-09T06:37:02.790Z,12.00
2024-05-09T06:37:34.466Z,11.95
2024-05-09T06:38:08.757Z,12.01
2024-05-09T06:38:40.828Z,11.89
2024-05-09T06:39:12.568Z,11.83
2024-05-09T06:39:46.076Z,11.77
2024-05-09T06:40:25.042Z,11.94
2024-05-09T06:40:57.678Z,12.09
2024-05-09T06:41:29.450Z,11.81
2024-05-09T06:42:01.240Z,11.60
2024-05-09T06:42:32.877Z,12.07
2024-05-09T06:43:04.730Z,12.17
2024-05-09T06:43:37.621Z,12.01
2024-05-09T06:44:09.663Z,11.84
2024-05-09T06:44:41.435Z,12.09
2024-05-09T06:45:13.792Z,12.17
2024-05-09T06:45:46.898Z,11.85
2024-05-09T06:46:18.640Z,12.16
2024-05-09T06:46:50.391Z,12.18
2024-05-09T06:47:22.293Z,12.05
2024-05-09T06:47:54.211Z,12.05
2024-05-09T06:48:26.217Z,11.92
2024-05-09T06:48:59.164Z,12.21
2024-05-09T06:49:31.734Z,12.22
2024-05-09T06:50:04.890Z,12.05
2024-05-09T06:50:39.744Z,12.12
2024-05-09T06:51:12.110Z,12.22
2024-05-09T06:51:43.927Z,11.80
2024-05-09T06:52:15.568Z,12.19
2024-05-09T06:52:47.536Z,12.10
2024-05-09T06:53:25.604Z,12.28
2024-05-09T06:53:57.282Z,12.28
2024-05-09T06:54:28.937Z,12.29
2024-05-09T06:55:00.705Z,12.24
2024-05-09T06:55:32.453Z,11.92
2024-05-09T06:56:04.400Z,12.11
2024-05-09T06:56:36.310Z,12.15
2024-05-09T06:57:08.054Z,12.29
2024-05-09T06:57:42.501Z,12.10
2024-05-09T06:58:14.735Z,12.11
2024-05-09T06:58:46.442Z,12.16
2024-05-09T06:59:18.249Z,12.19
2024-05-09T06:59:49.924Z,11.99
2024-05-09T07:00:27.735Z,12.10
2024-05-09T07:01:07.156Z,11.97
2024-05-09T07:01:38.858Z,12.23
2024-05-09T07:02:10.836Z,12.29
2024-05-09T07:02:42.646Z,12.19
2024-05-09T07:03:17.813Z,12.33
2024-05-09T07:03:50.793Z,12.18
2024-05-09T07:04:22.717Z,12.08
2024-05-09T07:04:54.687Z,12.06
2024-05-09T07:05:26.731Z,12.24
2024-05-09T07:05:58.765Z,12.22
2024-05-09T07:06:30.450Z,12.20
2024-05-09T07:07:02.169Z,12.30
2024-05-09T07:07:33.824Z,12.46